sensor_id;sensor_type;location;lat;lon;timestamp;temperature;humidity
837;DHT22;400;53.550;9.932;2024-02-21T00:01:25;10.40;1.00
837;DHT22;400;53.550;9.932;2024-02-21T00:03:52;10.40;1.00
837;DHT22;400;53.550;9.932;2024-02-21T00:06:19;10.40;1.00
837;DHT22;400;53.550;9.932;2024-02-21T00:08:46;10.40;1.00
837;DHT22;400;53.550;9.932;2024-02-21T00:11:12;10.40;1.00
837;DHT22;400;53.550;9.932;2024-02-21T00:13:39;10.30;1.00
837;DHT22;400;53.550;9.932;2024-02-21T00:16:08;10.40;1.00
837;DHT22;400;53.550;9.932;2024-02-21T00:18:36;10.40;1.00
837;DHT22;400;53.550;9.932;2024-02-21T00:21:03;10.50;1.00
837;DHT22;400;53.550;9.932;2024-02-21T00:23:29;10.50;1.00
837;DHT22;400;53.550;9.932;2024-02-21T00:25:56;10.40;1.00
837;DHT22;400;53.550;9.932;2024-02-21T00:28:22;10.50;1.00
837;DHT22;400;53.550;9.932;2024-02-21T00:30:50;10.50;1.00
837;DHT22;400;53.550;9.932;2024-02-21T00:33:20;10.40;1.00
837;DHT22;400;53.550;9.932;2024-02-21T00:35:47;10.40;1.00
837;DHT22;400;53.550;9.932;2024-02-21T00:38:14;10.50;1.00
837;DHT22;400;53.550;9.932;2024-02-21T00:40:40;10.50;1.00
837;DHT22;400;53.550;9.932;2024-02-21T00:43:08;10.30;1.00
837;DHT22;400;53.550;9.932;2024-02-21T00:45:38;10.30;1.00
837;DHT22;400;53.550;9.932;2024-02-21T00:48:05;10.40;1.00
837;DHT22;400;53.550;9.932;2024-02-21T00:50:33;10.50;1.00
837;DHT22;400;53.550;9.932;2024-02-21T00:53:01;10.30;1.00
837;DHT22;400;53.550;9.932;2024-02-21T00:55:27;10.30;1.00
837;DHT22;400;53.550;9.932;2024-02-21T00:57:54;10.40;1.00
837;DHT22;400;53.550;9.932;2024-02-21T01:00:21;10.30;1.00
837;DHT22;400;53.550;9.932;2024-02-21T01:02:48;10.40;2.30
837;DHT22;400;53.550;9.932;2024-02-21T01:05:15;10.30;1.00
837;DHT22;400;53.550;9.932;2024-02-21T01:07:43;10.40;1.00
837;DHT22;400;53.550;9.932;2024-02-21T01:10:10;10.30;4.30
837;DHT22;400;53.550;9.932;2024-02-21T01:12:37;10.40;4.30
837;DHT22;400;53.550;9.932;2024-02-21T01:15:04;10.50;1.00
837;DHT22;400;53.550;9.932;2024-02-21T01:17:31;10.40;1.00
837;DHT22;400;53.550;9.932;2024-02-21T01:19:58;10.40;1.00
837;DHT22;400;53.550;9.932;2024-02-21T01:22:25;10.40;1.00
837;DHT22;400;53.550;9.932;2024-02-21T01:24:54;10.40;1.00
837;DHT22;400;53.550;9.932;2024-02-21T01:27:20;10.40;7.50
837;DHT22;400;53.550;9.932;2024-02-21T01:29:47;10.50;6.00
837;DHT22;400;53.550;9.932;2024-02-21T01:32:15;10.50;3.50
837;DHT22;400;53.550;9.932;2024-02-21T01:34:42;10.30;4.50
837;DHT22;400;53.550;9.932;2024-02-21T01:37:09;10.30;22.40
837;DHT22;400;53.550;9.932;2024-02-21T01:39:37;10.40;21.20
837;DHT22;400;53.550;9.932;2024-02-21T01:42:05;10.50;20.10
837;DHT22;400;53.550;9.932;2024-02-21T01:44:33;10.50;17.40
837;DHT22;400;53.550;9.932;2024-02-21T01:46:59;10.50;26.60
837;DHT22;400;53.550;9.932;2024-02-21T01:49:26;10.50;35.20
837;DHT22;400;53.550;9.932;2024-02-21T01:51:56;10.50;41.60
837;DHT22;400;53.550;9.932;2024-02-21T01:54:23;10.50;42.30
837;DHT22;400;53.550;9.932;2024-02-21T01:56:54;10.50;50.20
837;DHT22;400;53.550;9.932;2024-02-21T01:59:23;10.50;65.10
837;DHT22;400;53.550;9.932;2024-02-21T02:01:56;10.40;87.30
837;DHT22;400;53.550;9.932;2024-02-21T02:04:24;10.30;99.90
837;DHT22;400;53.550;9.932;2024-02-21T02:06:53;10.40;99.90
837;DHT22;400;53.550;9.932;2024-02-21T02:09:20;10.40;99.90
837;DHT22;400;53.550;9.932;2024-02-21T02:11:47;10.50;99.90
837;DHT22;400;53.550;9.932;2024-02-21T02:14:14;10.50;99.90
837;DHT22;400;53.550;9.932;2024-02-21T02:16:46;10.40;99.90
837;DHT22;400;53.550;9.932;2024-02-21T02:19:13;10.40;99.90
837;DHT22;400;53.550;9.932;2024-02-21T02:21:44;10.40;99.90
837;DHT22;400;53.550;9.932;2024-02-21T02:24:13;10.40;99.90
837;DHT22;400;53.550;9.932;2024-02-21T02:26:41;10.40;99.90
837;DHT22;400;53.550;9.932;2024-02-21T02:29:08;10.40;99.90
837;DHT22;400;53.550;9.932;2024-02-21T02:31:35;10.50;99.90
837;DHT22;400;53.550;9.932;2024-02-21T02:34:02;10.50;99.90
837;DHT22;400;53.550;9.932;2024-02-21T02:36:32;10.40;99.90
837;DHT22;400;53.550;9.932;2024-02-21T02:38:59;10.40;99.90
837;DHT22;400;53.550;9.932;2024-02-21T02:41:27;10.40;99.90
837;DHT22;400;53.550;9.932;2024-02-21T02:43:54;10.40;99.90
837;DHT22;400;53.550;9.932;2024-02-21T02:46:21;10.40;99.90
837;DHT22;400;53.550;9.932;2024-02-21T02:48:48;10.40;99.90
837;DHT22;400;53.550;9.932;2024-02-21T02:51:15;10.40;99.90
837;DHT22;400;53.550;9.932;2024-02-21T02:53:42;10.30;99.90
837;DHT22;400;53.550;9.932;2024-02-21T02:56:14;10.40;99.90
837;DHT22;400;53.550;9.932;2024-02-21T02:58:42;10.40;99.90
837;DHT22;400;53.550;9.932;2024-02-21T03:01:09;10.40;99.90
837;DHT22;400;53.550;9.932;2024-02-21T03:03:36;10.40;99.90
837;DHT22;400;53.550;9.932;2024-02-21T03:06:03;10.30;99.90
837;DHT22;400;53.550;9.932;2024-02-21T03:08:31;10.10;99.90
837;DHT22;400;53.550;9.932;2024-02-21T03:10:59;10.20;99.90
837;DHT22;400;53.550;9.932;2024-02-21T03:13:26;10.20;99.90
837;DHT22;400;53.550;9.932;2024-02-21T03:15:54;10.30;99.90
837;DHT22;400;53.550;9.932;2024-02-21T03:18:21;10.20;99.90
837;DHT22;400;53.550;9.932;2024-02-21T03:20:48;10.20;99.90
837;DHT22;400;53.550;9.932;2024-02-21T03:23:15;10.30;99.90
837;DHT22;400;53.550;9.932;2024-02-21T03:25:42;10.30;99.90
837;DHT22;400;53.550;9.932;2024-02-21T03:28:09;10.30;99.90
837;DHT22;400;53.550;9.932;2024-02-21T03:30:36;10.40;99.90
837;DHT22;400;53.550;9.932;2024-02-21T03:33:05;10.40;99.90
837;DHT22;400;53.550;9.932;2024-02-21T03:35:32;10.30;94.60
837;DHT22;400;53.550;9.932;2024-02-21T03:37:58;10.40;99.40
837;DHT22;400;53.550;9.932;2024-02-21T03:40:26;10.30;91.10
837;DHT22;400;53.550;9.932;2024-02-21T03:42:53;10.30;97.00
837;DHT22;400;53.550;9.932;2024-02-21T03:45:21;10.30;98.30
837;DHT22;400;53.550;9.932;2024-02-21T03:47:48;10.20;89.00
837;DHT22;400;53.550;9.932;2024-02-21T03:50:16;10.20;93.80
837;DHT22;400;53.550;9.932;2024-02-21T03:52:43;10.20;99.90
837;DHT22;400;53.550;9.932;2024-02-21T03:55:10;10.30;99.90
837;DHT22;400;53.550;9.932;2024-02-21T03:57:37;10.30;96.90
837;DHT22;400;53.550;9.932;2024-02-21T04:00:05;10.30;95.60
837;DHT22;400;53.550;9.932;2024-02-21T04:02:36;10.30;99.90
837;DHT22;400;53.550;9.932;2024-02-21T04:05:03;10.40;99.90
837;DHT22;400;53.550;9.932;2024-02-21T04:07:32;10.40;99.90
837;DHT22;400;53.550;9.932;2024-02-21T04:09:59;10.40;99.90
837;DHT22;400;53.550;9.932;2024-02-21T04:12:26;10.50;99.90
837;DHT22;400;53.550;9.932;2024-02-21T04:14:53;10.50;99.90
837;DHT22;400;53.550;9.932;2024-02-21T04:17:20;10.40;99.90
837;DHT22;400;53.550;9.932;2024-02-21T04:19:48;10.30;99.90
837;DHT22;400;53.550;9.932;2024-02-21T04:22:18;10.40;99.90
837;DHT22;400;53.550;9.932;2024-02-21T04:24:47;10.40;99.90
837;DHT22;400;53.550;9.932;2024-02-21T04:27:14;10.40;99.90
837;DHT22;400;53.550;9.932;2024-02-21T04:29:41;10.40;99.90
837;DHT22;400;53.550;9.932;2024-02-21T04:32:08;10.40;99.90
837;DHT22;400;53.550;9.932;2024-02-21T04:34:37;10.40;99.90
837;DHT22;400;53.550;9.932;2024-02-21T04:37:04;10.40;99.90
837;DHT22;400;53.550;9.932;2024-02-21T04:39:32;10.40;99.90
837;DHT22;400;53.550;9.932;2024-02-21T04:42:00;10.30;99.90
837;DHT22;400;53.550;9.932;2024-02-21T04:44:27;10.30;99.90
837;DHT22;400;53.550;9.932;2024-02-21T04:46:54;10.30;99.90
837;DHT22;400;53.550;9.932;2024-02-21T04:49:20;10.30;99.90
837;DHT22;400;53.550;9.932;2024-02-21T04:51:47;10.10;99.90
837;DHT22;400;53.550;9.932;2024-02-21T04:54:14;10.00;99.90
837;DHT22;400;53.550;9.932;2024-02-21T04:56:41;10.10;99.90
837;DHT22;400;53.550;9.932;2024-02-21T04:59:10;10.10;99.90
837;DHT22;400;53.550;9.932;2024-02-21T05:01:39;10.10;99.90
837;DHT22;400;53.550;9.932;2024-02-21T05:04:06;10.10;99.90
837;DHT22;400;53.550;9.932;2024-02-21T05:06:37;10.10;99.90
837;DHT22;400;53.550;9.932;2024-02-21T05:09:06;10.10;99.90
837;DHT22;400;53.550;9.932;2024-02-21T05:11:34;10.20;99.90
837;DHT22;400;53.550;9.932;2024-02-21T05:14:01;10.10;99.90
837;DHT22;400;53.550;9.932;2024-02-21T05:16:29;10.20;99.90
837;DHT22;400;53.550;9.932;2024-02-21T05:18:56;10.20;99.90
837;DHT22;400;53.550;9.932;2024-02-21T05:21:23;10.10;99.90
837;DHT22;400;53.550;9.932;2024-02-21T05:23:50;10.10;99.90
837;DHT22;400;53.550;9.932;2024-02-21T05:26:20;10.00;99.90
837;DHT22;400;53.550;9.932;2024-02-21T05:28:48;10.10;99.90
837;DHT22;400;53.550;9.932;2024-02-21T05:31:15;10.20;99.90
837;DHT22;400;53.550;9.932;2024-02-21T05:33:45;10.20;99.90
837;DHT22;400;53.550;9.932;2024-02-21T05:36:12;10.10;99.90
837;DHT22;400;53.550;9.932;2024-02-21T05:38:40;10.20;99.90
837;DHT22;400;53.550;9.932;2024-02-21T05:41:07;10.10;99.90
837;DHT22;400;53.550;9.932;2024-02-21T05:43:35;10.10;99.90
837;DHT22;400;53.550;9.932;2024-02-21T05:46:06;10.10;99.90
837;DHT22;400;53.550;9.932;2024-02-21T05:48:37;10.10;99.90
837;DHT22;400;53.550;9.932;2024-02-21T05:51:07;10.10;99.90
837;DHT22;400;53.550;9.932;2024-02-21T05:53:34;10.00;99.90
837;DHT22;400;53.550;9.932;2024-02-21T05:56:02;10.10;99.90
837;DHT22;400;53.550;9.932;2024-02-21T05:58:30;10.10;99.90
837;DHT22;400;53.550;9.932;2024-02-21T06:00:57;10.10;99.90
837;DHT22;400;53.550;9.932;2024-02-21T06:03:24;10.10;99.90
837;DHT22;400;53.550;9.932;2024-02-21T06:05:50;10.00;99.90
837;DHT22;400;53.550;9.932;2024-02-21T06:08:19;10.10;99.90
837;DHT22;400;53.550;9.932;2024-02-21T06:10:48;10.00;99.90
837;DHT22;400;53.550;9.932;2024-02-21T06:13:19;10.00;99.90
837;DHT22;400;53.550;9.932;2024-02-21T06:15:47;10.00;99.90
837;DHT22;400;53.550;9.932;2024-02-21T06:18:16;9.90;99.90
837;DHT22;400;53.550;9.932;2024-02-21T06:20:43;9.90;99.90
837;DHT22;400;53.550;9.932;2024-02-21T06:23:12;9.90;99.90
837;DHT22;400;53.550;9.932;2024-02-21T06:25:40;10.00;99.90
837;DHT22;400;53.550;9.932;2024-02-21T06:28:07;10.10;99.90
837;DHT22;400;53.550;9.932;2024-02-21T06:30:36;10.00;99.90
837;DHT22;400;53.550;9.932;2024-02-21T06:33:05;9.90;99.90
837;DHT22;400;53.550;9.932;2024-02-21T06:35:33;9.90;99.90
837;DHT22;400;53.550;9.932;2024-02-21T06:38:01;9.90;99.90
837;DHT22;400;53.550;9.932;2024-02-21T06:40:29;9.80;99.90
837;DHT22;400;53.550;9.932;2024-02-21T06:43:09;9.80;99.90
837;DHT22;400;53.550;9.932;2024-02-21T06:45:44;9.90;99.90
837;DHT22;400;53.550;9.932;2024-02-21T06:48:17;9.90;99.90
837;DHT22;400;53.550;9.932;2024-02-21T06:50:53;9.90;99.90
837;DHT22;400;53.550;9.932;2024-02-21T06:53:39;9.80;99.90
837;DHT22;400;53.550;9.932;2024-02-21T06:56:15;9.90;1.00
837;DHT22;400;53.550;9.932;2024-02-21T06:58:50;10.00;1.00
837;DHT22;400;53.550;9.932;2024-02-21T07:01:17;10.00;99.90
837;DHT22;400;53.550;9.932;2024-02-21T07:03:46;10.00;99.90
837;DHT22;400;53.550;9.932;2024-02-21T07:06:22;10.00;99.90
837;DHT22;400;53.550;9.932;2024-02-21T07:08:54;10.00;99.90
837;DHT22;400;53.550;9.932;2024-02-21T07:11:26;9.90;99.90
837;DHT22;400;53.550;9.932;2024-02-21T07:13:57;9.90;99.90
837;DHT22;400;53.550;9.932;2024-02-21T07:16:27;9.90;99.90
837;DHT22;400;53.550;9.932;2024-02-21T07:18:55;10.00;99.90
837;DHT22;400;53.550;9.932;2024-02-21T07:21:23;10.00;99.90
837;DHT22;400;53.550;9.932;2024-02-21T07:23:50;10.10;99.90
837;DHT22;400;53.550;9.932;2024-02-21T07:26:17;10.10;99.90
837;DHT22;400;53.550;9.932;2024-02-21T07:28:49;10.20;99.90
837;DHT22;400;53.550;9.932;2024-02-21T07:31:29;10.10;99.90
837;DHT22;400;53.550;9.932;2024-02-21T07:34:06;10.10;99.90
837;DHT22;400;53.550;9.932;2024-02-21T07:36:40;10.10;99.90
837;DHT22;400;53.550;9.932;2024-02-21T07:39:08;10.10;99.90
837;DHT22;400;53.550;9.932;2024-02-21T07:41:35;10.20;99.90
837;DHT22;400;53.550;9.932;2024-02-21T07:44:02;10.20;99.90
837;DHT22;400;53.550;9.932;2024-02-21T07:46:31;10.00;99.90
837;DHT22;400;53.550;9.932;2024-02-21T07:48:58;10.10;99.90
837;DHT22;400;53.550;9.932;2024-02-21T07:51:27;10.20;99.90
837;DHT22;400;53.550;9.932;2024-02-21T07:53:54;10.20;99.90
837;DHT22;400;53.550;9.932;2024-02-21T07:56:21;10.20;99.90
837;DHT22;400;53.550;9.932;2024-02-21T07:58:48;10.20;99.90
837;DHT22;400;53.550;9.932;2024-02-21T08:01:19;10.20;99.90
837;DHT22;400;53.550;9.932;2024-02-21T08:03:47;10.10;99.90
837;DHT22;400;53.550;9.932;2024-02-21T08:06:14;10.10;99.90
837;DHT22;400;53.550;9.932;2024-02-21T08:08:42;10.20;99.90
837;DHT22;400;53.550;9.932;2024-02-21T08:11:11;10.10;99.90
837;DHT22;400;53.550;9.932;2024-02-21T08:13:41;10.00;99.90
837;DHT22;400;53.550;9.932;2024-02-21T08:16:19;10.00;99.90
837;DHT22;400;53.550;9.932;2024-02-21T08:18:52;10.10;99.90
837;DHT22;400;53.550;9.932;2024-02-21T08:21:20;10.00;99.90
837;DHT22;400;53.550;9.932;2024-02-21T08:23:49;10.10;99.90
837;DHT22;400;53.550;9.932;2024-02-21T08:26:21;10.00;99.90
837;DHT22;400;53.550;9.932;2024-02-21T08:28:50;10.00;99.90
837;DHT22;400;53.550;9.932;2024-02-21T08:31:21;9.90;99.90
837;DHT22;400;53.550;9.932;2024-02-21T08:33:51;9.90;99.90
837;DHT22;400;53.550;9.932;2024-02-21T08:36:18;10.00;99.90
837;DHT22;400;53.550;9.932;2024-02-21T08:38:46;10.00;99.90
837;DHT22;400;53.550;9.932;2024-02-21T08:41:15;9.90;99.90
837;DHT22;400;53.550;9.932;2024-02-21T08:43:48;10.00;99.90
837;DHT22;400;53.550;9.932;2024-02-21T08:46:24;9.90;99.90
837;DHT22;400;53.550;9.932;2024-02-21T08:48:53;10.00;99.90
837;DHT22;400;53.550;9.932;2024-02-21T08:51:20;10.10;99.90
837;DHT22;400;53.550;9.932;2024-02-21T08:53:50;10.20;99.90
837;DHT22;400;53.550;9.932;2024-02-21T08:56:21;10.20;99.90
837;DHT22;400;53.550;9.932;2024-02-21T08:58:48;10.20;99.90
837;DHT22;400;53.550;9.932;2024-02-21T09:01:15;10.10;99.90
837;DHT22;400;53.550;9.932;2024-02-21T09:03:43;10.20;99.90
837;DHT22;400;53.550;9.932;2024-02-21T09:06:13;10.10;99.90
837;DHT22;400;53.550;9.932;2024-02-21T09:08:40;10.10;99.90
837;DHT22;400;53.550;9.932;2024-02-21T09:11:10;10.10;99.90
837;DHT22;400;53.550;9.932;2024-02-21T09:13:40;10.10;99.90
837;DHT22;400;53.550;9.932;2024-02-21T09:16:06;10.20;99.90
837;DHT22;400;53.550;9.932;2024-02-21T09:18:34;10.10;99.90
837;DHT22;400;53.550;9.932;2024-02-21T09:21:01;10.00;99.90
837;DHT22;400;53.550;9.932;2024-02-21T09:23:29;10.10;99.90
837;DHT22;400;53.550;9.932;2024-02-21T09:25:58;10.10;99.90
837;DHT22;400;53.550;9.932;2024-02-21T09:28:26;10.10;99.90
837;DHT22;400;53.550;9.932;2024-02-21T09:30:53;10.20;99.90
837;DHT22;400;53.550;9.932;2024-02-21T09:33:21;10.20;99.90
837;DHT22;400;53.550;9.932;2024-02-21T09:35:48;10.20;99.90
837;DHT22;400;53.550;9.932;2024-02-21T09:38:15;10.20;99.90
837;DHT22;400;53.550;9.932;2024-02-21T09:40:47;10.30;99.90
837;DHT22;400;53.550;9.932;2024-02-21T09:43:18;10.30;99.90
837;DHT22;400;53.550;9.932;2024-02-21T09:45:46;10.40;99.90
837;DHT22;400;53.550;9.932;2024-02-21T09:48:35;10.40;99.90
837;DHT22;400;53.550;9.932;2024-02-21T09:51:05;10.50;99.90
837;DHT22;400;53.550;9.932;2024-02-21T09:53:34;10.60;99.90
837;DHT22;400;53.550;9.932;2024-02-21T09:56:07;10.60;99.90
837;DHT22;400;53.550;9.932;2024-02-21T09:58:36;10.50;99.90
837;DHT22;400;53.550;9.932;2024-02-21T10:01:05;10.40;99.90
837;DHT22;400;53.550;9.932;2024-02-21T10:03:32;10.40;99.90
837;DHT22;400;53.550;9.932;2024-02-21T10:06:00;10.40;99.90
837;DHT22;400;53.550;9.932;2024-02-21T10:08:29;10.50;99.90
837;DHT22;400;53.550;9.932;2024-02-21T10:10:56;10.40;99.90
837;DHT22;400;53.550;9.932;2024-02-21T10:13:27;10.50;99.90
837;DHT22;400;53.550;9.932;2024-02-21T10:16:02;10.60;99.90
837;DHT22;400;53.550;9.932;2024-02-21T10:18:29;10.60;99.90
837;DHT22;400;53.550;9.932;2024-02-21T10:21:03;10.60;99.90
837;DHT22;400;53.550;9.932;2024-02-21T10:23:45;10.70;99.90
837;DHT22;400;53.550;9.932;2024-02-21T10:26:24;10.70;99.90
837;DHT22;400;53.550;9.932;2024-02-21T10:28:57;10.70;99.90
837;DHT22;400;53.550;9.932;2024-02-21T10:31:31;10.60;99.90
837;DHT22;400;53.550;9.932;2024-02-21T10:34:01;10.70;99.90
837;DHT22;400;53.550;9.932;2024-02-21T10:36:31;10.70;99.90
837;DHT22;400;53.550;9.932;2024-02-21T10:38:58;10.70;99.90
837;DHT22;400;53.550;9.932;2024-02-21T10:41:25;10.70;99.90
837;DHT22;400;53.550;9.932;2024-02-21T10:43:56;10.80;99.90
837;DHT22;400;53.550;9.932;2024-02-21T10:46:31;10.80;99.90
837;DHT22;400;53.550;9.932;2024-02-21T10:49:15;10.80;99.90
837;DHT22;400;53.550;9.932;2024-02-21T10:51:44;10.80;99.90
837;DHT22;400;53.550;9.932;2024-02-21T10:54:24;10.80;99.90
837;DHT22;400;53.550;9.932;2024-02-21T10:56:57;10.80;99.90
837;DHT22;400;53.550;9.932;2024-02-21T10:59:27;10.80;99.90
837;DHT22;400;53.550;9.932;2024-02-21T11:01:55;10.80;99.90
837;DHT22;400;53.550;9.932;2024-02-21T11:04:23;10.80;99.90
837;DHT22;400;53.550;9.932;2024-02-21T11:06:51;10.90;99.90
837;DHT22;400;53.550;9.932;2024-02-21T11:09:18;10.90;99.90
837;DHT22;400;53.550;9.932;2024-02-21T11:11:49;10.80;99.90
837;DHT22;400;53.550;9.932;2024-02-21T11:14:19;10.80;99.90
837;DHT22;400;53.550;9.932;2024-02-21T11:16:47;10.90;99.90
837;DHT22;400;53.550;9.932;2024-02-21T11:19:19;10.70;99.90
837;DHT22;400;53.550;9.932;2024-02-21T11:21:49;10.80;99.90
837;DHT22;400;53.550;9.932;2024-02-21T11:24:26;10.80;99.90
837;DHT22;400;53.550;9.932;2024-02-21T11:26:55;10.90;99.90
837;DHT22;400;53.550;9.932;2024-02-21T11:29:29;10.90;99.90
837;DHT22;400;53.550;9.932;2024-02-21T11:32:06;10.90;99.90
837;DHT22;400;53.550;9.932;2024-02-21T11:34:37;10.90;99.90
837;DHT22;400;53.550;9.932;2024-02-21T11:37:13;10.80;99.90
837;DHT22;400;53.550;9.932;2024-02-21T11:39:44;10.70;99.90
837;DHT22;400;53.550;9.932;2024-02-21T11:42:13;10.80;99.90
837;DHT22;400;53.550;9.932;2024-02-21T11:44:40;10.70;99.90
837;DHT22;400;53.550;9.932;2024-02-21T11:47:09;10.80;99.90
837;DHT22;400;53.550;9.932;2024-02-21T11:49:43;10.80;99.90
837;DHT22;400;53.550;9.932;2024-02-21T11:52:13;10.80;99.90
837;DHT22;400;53.550;9.932;2024-02-21T11:54:41;10.80;95.80
837;DHT22;400;53.550;9.932;2024-02-21T11:57:09;10.80;99.90
837;DHT22;400;53.550;9.932;2024-02-21T11:59:46;10.80;99.90
837;DHT22;400;53.550;9.932;2024-02-21T12:02:28;10.80;99.90
837;DHT22;400;53.550;9.932;2024-02-21T12:04:57;10.80;99.90
837;DHT22;400;53.550;9.932;2024-02-21T12:07:24;10.90;99.90
837;DHT22;400;53.550;9.932;2024-02-21T12:09:54;11.00;99.70
837;DHT22;400;53.550;9.932;2024-02-21T12:12:21;11.00;85.00
837;DHT22;400;53.550;9.932;2024-02-21T12:14:55;10.90;61.40
837;DHT22;400;53.550;9.932;2024-02-21T12:17:23;11.00;72.90
837;DHT22;400;53.550;9.932;2024-02-21T12:20:02;11.00;61.80
837;DHT22;400;53.550;9.932;2024-02-21T12:22:37;11.00;52.00
837;DHT22;400;53.550;9.932;2024-02-21T12:25:27;11.00;55.30
837;DHT22;400;53.550;9.932;2024-02-21T12:28:05;11.00;46.90
837;DHT22;400;53.550;9.932;2024-02-21T12:30:36;11.00;47.90
837;DHT22;400;53.550;9.932;2024-02-21T12:33:08;11.00;42.00
837;DHT22;400;53.550;9.932;2024-02-21T12:35:44;11.00;41.30
837;DHT22;400;53.550;9.932;2024-02-21T12:38:17;11.10;36.60
837;DHT22;400;53.550;9.932;2024-02-21T12:40:50;11.00;26.40
837;DHT22;400;53.550;9.932;2024-02-21T12:43:17;10.90;29.70
837;DHT22;400;53.550;9.932;2024-02-21T12:45:46;10.90;36.20
837;DHT22;400;53.550;9.932;2024-02-21T12:48:14;11.00;35.40
837;DHT22;400;53.550;9.932;2024-02-21T12:50:51;11.00;38.30
837;DHT22;400;53.550;9.932;2024-02-21T12:53:23;11.00;33.20
837;DHT22;400;53.550;9.932;2024-02-21T12:55:52;11.00;21.70
837;DHT22;400;53.550;9.932;2024-02-21T12:58:19;11.00;20.30
837;DHT22;400;53.550;9.932;2024-02-21T13:00:46;10.90;4.30
837;DHT22;400;53.550;9.932;2024-02-21T13:03:14;11.00;18.80
837;DHT22;400;53.550;9.932;2024-02-21T13:05:48;11.00;16.90
837;DHT22;400;53.550;9.932;2024-02-21T13:08:22;11.00;13.90
837;DHT22;400;53.550;9.932;2024-02-21T13:10:53;11.00;15.20
837;DHT22;400;53.550;9.932;2024-02-21T13:13:20;11.10;11.20
837;DHT22;400;53.550;9.932;2024-02-21T13:15:50;11.10;1.00
837;DHT22;400;53.550;9.932;2024-02-21T13:18:22;11.20;1.00
837;DHT22;400;53.550;9.932;2024-02-21T13:20:55;11.20;1.00
837;DHT22;400;53.550;9.932;2024-02-21T13:23:25;11.20;1.00
837;DHT22;400;53.550;9.932;2024-02-21T13:25:52;11.10;1.00
837;DHT22;400;53.550;9.932;2024-02-21T13:28:20;11.20;1.00
837;DHT22;400;53.550;9.932;2024-02-21T13:30:50;11.20;1.00
837;DHT22;400;53.550;9.932;2024-02-21T13:33:20;11.20;1.00
837;DHT22;400;53.550;9.932;2024-02-21T13:35:46;11.30;1.00
837;DHT22;400;53.550;9.932;2024-02-21T13:38:15;11.30;1.00
837;DHT22;400;53.550;9.932;2024-02-21T13:40:46;11.30;1.00
837;DHT22;400;53.550;9.932;2024-02-21T13:43:23;11.40;1.00
837;DHT22;400;53.550;9.932;2024-02-21T13:45:58;11.40;1.00
837;DHT22;400;53.550;9.932;2024-02-21T13:48:34;11.40;1.00
837;DHT22;400;53.550;9.932;2024-02-21T13:51:08;11.50;1.00
837;DHT22;400;53.550;9.932;2024-02-21T13:53:42;11.50;1.00
837;DHT22;400;53.550;9.932;2024-02-21T13:56:13;11.50;1.00
837;DHT22;400;53.550;9.932;2024-02-21T13:58:43;11.60;1.00
837;DHT22;400;53.550;9.932;2024-02-21T14:01:12;11.60;1.00
837;DHT22;400;53.550;9.932;2024-02-21T14:03:49;11.70;1.00
837;DHT22;400;53.550;9.932;2024-02-21T14:06:29;11.60;1.00
837;DHT22;400;53.550;9.932;2024-02-21T14:09:14;11.70;1.00
837;DHT22;400;53.550;9.932;2024-02-21T14:11:46;11.70;1.00
837;DHT22;400;53.550;9.932;2024-02-21T14:14:21;11.70;1.00
837;DHT22;400;53.550;9.932;2024-02-21T14:16:50;11.70;1.00
837;DHT22;400;53.550;9.932;2024-02-21T14:19:22;11.80;1.00
837;DHT22;400;53.550;9.932;2024-02-21T14:21:49;11.80;1.00
837;DHT22;400;53.550;9.932;2024-02-21T14:24:19;11.80;1.00
837;DHT22;400;53.550;9.932;2024-02-21T14:26:47;11.80;1.00
837;DHT22;400;53.550;9.932;2024-02-21T14:29:15;11.80;1.00
837;DHT22;400;53.550;9.932;2024-02-21T14:31:46;11.90;1.00
837;DHT22;400;53.550;9.932;2024-02-21T14:34:20;11.90;1.00
837;DHT22;400;53.550;9.932;2024-02-21T14:36:50;11.90;1.00
837;DHT22;400;53.550;9.932;2024-02-21T14:39:18;11.90;1.00
837;DHT22;400;53.550;9.932;2024-02-21T14:41:48;11.90;1.00
837;DHT22;400;53.550;9.932;2024-02-21T14:44:16;11.80;1.00
837;DHT22;400;53.550;9.932;2024-02-21T14:46:44;11.90;1.00
837;DHT22;400;53.550;9.932;2024-02-21T14:49:17;11.90;1.00
837;DHT22;400;53.550;9.932;2024-02-21T14:51:53;11.90;1.00
837;DHT22;400;53.550;9.932;2024-02-21T14:54:25;11.80;1.00
837;DHT22;400;53.550;9.932;2024-02-21T14:56:53;11.80;1.00
837;DHT22;400;53.550;9.932;2024-02-21T14:59:21;11.80;1.00
837;DHT22;400;53.550;9.932;2024-02-21T15:01:52;11.80;1.00
837;DHT22;400;53.550;9.932;2024-02-21T15:04:23;11.80;1.00
837;DHT22;400;53.550;9.932;2024-02-21T15:06:55;11.80;1.00
837;DHT22;400;53.550;9.932;2024-02-21T15:09:22;11.80;1.00
837;DHT22;400;53.550;9.932;2024-02-21T15:11:50;11.80;1.00
837;DHT22;400;53.550;9.932;2024-02-21T15:14:18;11.90;1.00
837;DHT22;400;53.550;9.932;2024-02-21T15:16:48;11.80;1.00
837;DHT22;400;53.550;9.932;2024-02-21T15:19:17;11.80;1.00
837;DHT22;400;53.550;9.932;2024-02-21T15:21:50;11.80;1.00
837;DHT22;400;53.550;9.932;2024-02-21T15:24:21;11.80;1.00
837;DHT22;400;53.550;9.932;2024-02-21T15:26:53;11.80;1.00
837;DHT22;400;53.550;9.932;2024-02-21T15:29:19;11.80;1.00
837;DHT22;400;53.550;9.932;2024-02-21T15:31:46;11.80;1.00
837;DHT22;400;53.550;9.932;2024-02-21T15:34:13;11.80;1.00
837;DHT22;400;53.550;9.932;2024-02-21T15:36:41;11.80;1.00
837;DHT22;400;53.550;9.932;2024-02-21T15:39:13;11.70;1.00
837;DHT22;400;53.550;9.932;2024-02-21T15:41:40;11.70;1.00
837;DHT22;400;53.550;9.932;2024-02-21T15:44:09;11.70;1.00
837;DHT22;400;53.550;9.932;2024-02-21T15:46:36;11.70;1.00
837;DHT22;400;53.550;9.932;2024-02-21T15:49:05;11.70;1.00
837;DHT22;400;53.550;9.932;2024-02-21T15:51:39;11.70;1.00
837;DHT22;400;53.550;9.932;2024-02-21T15:54:22;11.70;1.00
837;DHT22;400;53.550;9.932;2024-02-21T15:56:56;11.70;1.00
837;DHT22;400;53.550;9.932;2024-02-21T15:59:25;11.70;1.00
837;DHT22;400;53.550;9.932;2024-02-21T16:01:54;11.60;1.00
837;DHT22;400;53.550;9.932;2024-02-21T16:04:24;11.60;1.00
837;DHT22;400;53.550;9.932;2024-02-21T16:06:54;11.60;1.00
837;DHT22;400;53.550;9.932;2024-02-21T16:09:24;11.70;1.00
837;DHT22;400;53.550;9.932;2024-02-21T16:11:53;11.60;1.00
837;DHT22;400;53.550;9.932;2024-02-21T16:14:21;11.60;1.00
837;DHT22;400;53.550;9.932;2024-02-21T16:16:49;11.60;1.00
837;DHT22;400;53.550;9.932;2024-02-21T16:19:16;11.60;1.00
837;DHT22;400;53.550;9.932;2024-02-21T16:21:46;11.50;1.00
837;DHT22;400;53.550;9.932;2024-02-21T16:24:28;11.50;1.00
837;DHT22;400;53.550;9.932;2024-02-21T16:27:03;11.50;1.00
837;DHT22;400;53.550;9.932;2024-02-21T16:29:37;11.60;1.00
837;DHT22;400;53.550;9.932;2024-02-21T16:32:11;11.50;1.00
837;DHT22;400;53.550;9.932;2024-02-21T16:34:38;11.50;1.00
837;DHT22;400;53.550;9.932;2024-02-21T16:37:06;11.40;1.00
837;DHT22;400;53.550;9.932;2024-02-21T16:39:38;11.40;1.00
837;DHT22;400;53.550;9.932;2024-02-21T16:42:07;11.40;1.00
837;DHT22;400;53.550;9.932;2024-02-21T16:44:33;11.40;1.00
837;DHT22;400;53.550;9.932;2024-02-21T16:47:00;11.40;1.00
837;DHT22;400;53.550;9.932;2024-02-21T16:49:29;11.40;1.00
837;DHT22;400;53.550;9.932;2024-02-21T16:52:01;11.40;1.00
837;DHT22;400;53.550;9.932;2024-02-21T16:54:33;11.40;1.00
837;DHT22;400;53.550;9.932;2024-02-21T16:57:08;11.30;1.00